sensor_id;sensor_type;location;lat;lon;timestamp;temperature;humidity
7648;DHT22;3866;48.020;11.720;2022-07-29T00:00:12;19.30;99.90
7648;DHT22;3866;48.020;11.720;2022-07-29T00:02:39;19.30;99.90
7648;DHT22;3866;48.020;11.720;2022-07-29T00:05:08;19.30;99.90
7648;DHT22;3866;48.020;11.720;2022-07-29T00:07:36;19.30;99.90
7648;DHT22;3866;48.020;11.720;2022-07-29T00:10:04;19.20;99.90
7648;DHT22;3866;48.020;11.720;2022-07-29T00:12:31;19.20;99.90
7648;DHT22;3866;48.020;11.720;2022-07-29T00:14:58;19.20;99.90
7648;DHT22;3866;48.020;11.720;2022-07-29T00:17:25;19.20;99.90
7648;DHT22;3866;48.020;11.720;2022-07-29T00:19:52;19.20;99.90
7648;DHT22;3866;48.020;11.720;2022-07-29T00:22:19;19.20;99.90
7648;DHT22;3866;48.020;11.720;2022-07-29T00:24:48;19.20;99.90
7648;DHT22;3866;48.020;11.720;2022-07-29T00:27:15;19.10;99.90
7648;DHT22;3866;48.020;11.720;2022-07-29T00:29:42;19.10;99.90
7648;DHT22;3866;48.020;11.720;2022-07-29T00:32:09;19.20;99.90
7648;DHT22;3866;48.020;11.720;2022-07-29T00:34:36;19.10;99.90
7648;DHT22;3866;48.020;11.720;2022-07-29T00:37:20;19.10;99.90
7648;DHT22;3866;48.020;11.720;2022-07-29T00:39:48;19.00;99.90
7648;DHT22;3866;48.020;11.720;2022-07-29T00:42:15;18.90;99.90
7648;DHT22;3866;48.020;11.720;2022-07-29T00:44:42;19.00;99.90
7648;DHT22;3866;48.020;11.720;2022-07-29T00:47:11;18.90;99.90
7648;DHT22;3866;48.020;11.720;2022-07-29T00:49:39;18.90;99.90
7648;DHT22;3866;48.020;11.720;2022-07-29T00:52:07;18.90;99.90
7648;DHT22;3866;48.020;11.720;2022-07-29T00:54:35;18.90;99.90
7648;DHT22;3866;48.020;11.720;2022-07-29T00:57:05;18.90;99.90
7648;DHT22;3866;48.020;11.720;2022-07-29T00:59:32;18.90;99.90
7648;DHT22;3866;48.020;11.720;2022-07-29T01:01:59;18.80;99.90
7648;DHT22;3866;48.020;11.720;2022-07-29T01:04:26;18.80;99.90
7648;DHT22;3866;48.020;11.720;2022-07-29T01:06:55;18.90;99.90
7648;DHT22;3866;48.020;11.720;2022-07-29T01:09:22;18.80;99.90
7648;DHT22;3866;48.020;11.720;2022-07-29T01:11:50;18.80;99.90
7648;DHT22;3866;48.020;11.720;2022-07-29T01:14:18;18.80;99.90
7648;DHT22;3866;48.020;11.720;2022-07-29T01:16:51;18.70;99.90
7648;DHT22;3866;48.020;11.720;2022-07-29T01:19:35;18.60;99.90
7648;DHT22;3866;48.020;11.720;2022-07-29T01:30:51;18.60;99.90
7648;DHT22;3866;48.020;11.720;2022-07-29T01:33:20;18.70;99.90
7648;DHT22;3866;48.020;11.720;2022-07-29T01:36:10;18.70;99.90
7648;DHT22;3866;48.020;11.720;2022-07-29T01:38:40;18.70;99.90
7648;DHT22;3866;48.020;11.720;2022-07-29T01:41:10;18.60;99.90
7648;DHT22;3866;48.020;11.720;2022-07-29T01:43:43;18.60;99.90
7648;DHT22;3866;48.020;11.720;2022-07-29T01:46:17;18.60;99.90
7648;DHT22;3866;48.020;11.720;2022-07-29T01:48:47;18.50;99.90
7648;DHT22;3866;48.020;11.720;2022-07-29T01:51:19;18.60;99.90
7648;DHT22;3866;48.020;11.720;2022-07-29T01:53:52;18.50;99.90
7648;DHT22;3866;48.020;11.720;2022-07-29T01:56:23;18.60;99.90
7648;DHT22;3866;48.020;11.720;2022-07-29T01:58:52;18.60;99.90
7648;DHT22;3866;48.020;11.720;2022-07-29T02:01:24;18.50;99.90
7648;DHT22;3866;48.020;11.720;2022-07-29T02:03:52;18.50;99.90
7648;DHT22;3866;48.020;11.720;2022-07-29T02:06:22;18.40;99.90
7648;DHT22;3866;48.020;11.720;2022-07-29T02:08:51;18.40;99.90
7648;DHT22;3866;48.020;11.720;2022-07-29T02:11:19;18.40;99.90
7648;DHT22;3866;48.020;11.720;2022-07-29T02:13:46;18.40;99.90
7648;DHT22;3866;48.020;11.720;2022-07-29T02:16:15;18.40;99.90
7648;DHT22;3866;48.020;11.720;2022-07-29T02:18:45;18.40;99.90
7648;DHT22;3866;48.020;11.720;2022-07-29T02:21:16;18.30;99.90
7648;DHT22;3866;48.020;11.720;2022-07-29T02:23:46;18.20;99.90
7648;DHT22;3866;48.020;11.720;2022-07-29T02:26:15;18.20;99.90
7648;DHT22;3866;48.020;11.720;2022-07-29T02:28:45;18.20;99.90
7648;DHT22;3866;48.020;11.720;2022-07-29T02:31:12;18.30;99.90
7648;DHT22;3866;48.020;11.720;2022-07-29T02:33:40;18.20;99.90
7648;DHT22;3866;48.020;11.720;2022-07-29T02:36:10;18.20;99.90
7648;DHT22;3866;48.020;11.720;2022-07-29T02:38:37;18.20;99.90
7648;DHT22;3866;48.020;11.720;2022-07-29T02:41:23;18.30;99.90
7648;DHT22;3866;48.020;11.720;2022-07-29T02:43:54;18.50;99.90
7648;DHT22;3866;48.020;11.720;2022-07-29T02:46:34;18.30;99.90
7648;DHT22;3866;48.020;11.720;2022-07-29T02:49:08;18.30;99.90
7648;DHT22;3866;48.020;11.720;2022-07-29T02:51:41;18.30;99.90
7648;DHT22;3866;48.020;11.720;2022-07-29T02:54:11;18.30;99.90
7648;DHT22;3866;48.020;11.720;2022-07-29T02:56:42;18.40;99.90
7648;DHT22;3866;48.020;11.720;2022-07-29T02:59:11;18.50;99.90
7648;DHT22;3866;48.020;11.720;2022-07-29T03:01:42;18.40;99.90
7648;DHT22;3866;48.020;11.720;2022-07-29T03:04:11;18.40;99.90
7648;DHT22;3866;48.020;11.720;2022-07-29T03:06:41;18.30;99.90
7648;DHT22;3866;48.020;11.720;2022-07-29T03:09:10;18.10;99.90
7648;DHT22;3866;48.020;11.720;2022-07-29T03:11:38;18.10;99.90
7648;DHT22;3866;48.020;11.720;2022-07-29T03:14:06;18.10;99.90
7648;DHT22;3866;48.020;11.720;2022-07-29T03:16:33;18.00;99.90
7648;DHT22;3866;48.020;11.720;2022-07-29T03:19:03;17.80;99.90
7648;DHT22;3866;48.020;11.720;2022-07-29T03:21:30;17.70;99.90
7648;DHT22;3866;48.020;11.720;2022-07-29T03:23:59;17.70;99.90
7648;DHT22;3866;48.020;11.720;2022-07-29T03:26:26;17.80;99.90
7648;DHT22;3866;48.020;11.720;2022-07-29T03:28:53;17.60;99.90
7648;DHT22;3866;48.020;11.720;2022-07-29T03:31:21;17.70;99.90
7648;DHT22;3866;48.020;11.720;2022-07-29T03:33:48;17.70;99.90
7648;DHT22;3866;48.020;11.720;2022-07-29T03:36:14;17.50;99.90
7648;DHT22;3866;48.020;11.720;2022-07-29T03:38:42;17.40;99.90
7648;DHT22;3866;48.020;11.720;2022-07-29T03:41:13;17.40;99.90
7648;DHT22;3866;48.020;11.720;2022-07-29T03:43:42;17.40;99.90
7648;DHT22;3866;48.020;11.720;2022-07-29T03:46:10;17.30;99.90
7648;DHT22;3866;48.020;11.720;2022-07-29T03:48:42;17.30;99.90
7648;DHT22;3866;48.020;11.720;2022-07-29T03:51:10;17.30;99.90
7648;DHT22;3866;48.020;11.720;2022-07-29T03:53:37;17.30;99.90
7648;DHT22;3866;48.020;11.720;2022-07-29T03:56:06;17.40;99.90
7648;DHT22;3866;48.020;11.720;2022-07-29T03:58:35;17.40;99.90
7648;DHT22;3866;48.020;11.720;2022-07-29T04:01:02;17.30;99.90
7648;DHT22;3866;48.020;11.720;2022-07-29T04:03:29;17.30;99.90
7648;DHT22;3866;48.020;11.720;2022-07-29T04:06:01;17.30;99.90
7648;DHT22;3866;48.020;11.720;2022-07-29T04:08:28;17.20;99.90
7648;DHT22;3866;48.020;11.720;2022-07-29T04:10:55;17.30;99.90
7648;DHT22;3866;48.020;11.720;2022-07-29T04:13:22;17.10;99.90
7648;DHT22;3866;48.020;11.720;2022-07-29T04:15:50;16.80;99.90
7648;DHT22;3866;48.020;11.720;2022-07-29T04:18:17;16.70;99.90
7648;DHT22;3866;48.020;11.720;2022-07-29T04:20:44;16.70;99.90
7648;DHT22;3866;48.020;11.720;2022-07-29T04:23:11;16.70;99.90
7648;DHT22;3866;48.020;11.720;2022-07-29T04:25:39;16.60;99.90
7648;DHT22;3866;48.020;11.720;2022-07-29T04:28:06;16.70;99.90
7648;DHT22;3866;48.020;11.720;2022-07-29T04:30:34;16.70;99.90
7648;DHT22;3866;48.020;11.720;2022-07-29T04:33:04;16.80;99.90
7648;DHT22;3866;48.020;11.720;2022-07-29T04:35:34;16.70;99.90
7648;DHT22;3866;48.020;11.720;2022-07-29T04:38:01;16.80;99.90
7648;DHT22;3866;48.020;11.720;2022-07-29T04:40:28;16.90;99.90
7648;DHT22;3866;48.020;11.720;2022-07-29T04:42:55;17.00;99.90
7648;DHT22;3866;48.020;11.720;2022-07-29T04:45:22;17.10;99.90
7648;DHT22;3866;48.020;11.720;2022-07-29T04:47:49;17.10;99.90
7648;DHT22;3866;48.020;11.720;2022-07-29T04:50:17;17.20;99.90
7648;DHT22;3866;48.020;11.720;2022-07-29T04:52:44;17.30;99.90
7648;DHT22;3866;48.020;11.720;2022-07-29T04:55:11;17.20;99.90
7648;DHT22;3866;48.020;11.720;2022-07-29T04:57:38;17.50;99.90
7648;DHT22;3866;48.020;11.720;2022-07-29T05:00:07;17.70;99.90
7648;DHT22;3866;48.020;11.720;2022-07-29T05:02:34;17.70;99.90
7648;DHT22;3866;48.020;11.720;2022-07-29T05:05:01;17.70;99.90
7648;DHT22;3866;48.020;11.720;2022-07-29T05:07:29;17.70;99.90
7648;DHT22;3866;48.020;11.720;2022-07-29T05:09:56;17.70;99.90
7648;DHT22;3866;48.020;11.720;2022-07-29T05:12:23;17.70;99.90
7648;DHT22;3866;48.020;11.720;2022-07-29T05:14:50;17.80;99.90
7648;DHT22;3866;48.020;11.720;2022-07-29T05:17:17;17.90;99.90
7648;DHT22;3866;48.020;11.720;2022-07-29T05:19:44;18.20;99.90
7648;DHT22;3866;48.020;11.720;2022-07-29T05:22:11;18.30;99.90
7648;DHT22;3866;48.020;11.720;2022-07-29T05:24:39;18.30;99.90
7648;DHT22;3866;48.020;11.720;2022-07-29T05:27:06;18.30;99.90
7648;DHT22;3866;48.020;11.720;2022-07-29T05:29:33;18.30;99.90
7648;DHT22;3866;48.020;11.720;2022-07-29T05:32:00;18.30;99.90
7648;DHT22;3866;48.020;11.720;2022-07-29T05:34:27;18.30;99.90
7648;DHT22;3866;48.020;11.720;2022-07-29T05:36:54;18.60;99.90
7648;DHT22;3866;48.020;11.720;2022-07-29T05:39:22;18.90;99.90
7648;DHT22;3866;48.020;11.720;2022-07-29T05:41:50;19.10;99.90
7648;DHT22;3866;48.020;11.720;2022-07-29T05:44:17;19.00;99.90
7648;DHT22;3866;48.020;11.720;2022-07-29T05:46:44;19.10;99.90
7648;DHT22;3866;48.020;11.720;2022-07-29T05:49:11;19.00;99.90
7648;DHT22;3866;48.020;11.720;2022-07-29T05:51:38;19.20;99.90
7648;DHT22;3866;48.020;11.720;2022-07-29T05:54:05;19.50;99.90
7648;DHT22;3866;48.020;11.720;2022-07-29T05:56:32;19.40;99.90
7648;DHT22;3866;48.020;11.720;2022-07-29T05:59:00;19.30;99.90
7648;DHT22;3866;48.020;11.720;2022-07-29T06:01:27;19.30;99.90
7648;DHT22;3866;48.020;11.720;2022-07-29T06:03:54;19.40;99.90
7648;DHT22;3866;48.020;11.720;2022-07-29T06:06:21;19.30;99.90
7648;DHT22;3866;48.020;11.720;2022-07-29T06:08:48;19.40;99.90
7648;DHT22;3866;48.020;11.720;2022-07-29T06:11:15;19.40;99.90
7648;DHT22;3866;48.020;11.720;2022-07-29T06:13:42;19.50;99.90
7648;DHT22;3866;48.020;11.720;2022-07-29T06:16:10;19.40;99.90
7648;DHT22;3866;48.020;11.720;2022-07-29T06:18:37;19.70;99.90
7648;DHT22;3866;48.020;11.720;2022-07-29T06:21:07;20.00;99.90
7648;DHT22;3866;48.020;11.720;2022-07-29T06:23:35;20.00;99.90
7648;DHT22;3866;48.020;11.720;2022-07-29T06:26:02;20.20;99.90
7648;DHT22;3866;48.020;11.720;2022-07-29T06:28:29;20.20;99.90
7648;DHT22;3866;48.020;11.720;2022-07-29T06:30:56;20.10;99.90
7648;DHT22;3866;48.020;11.720;2022-07-29T06:33:24;20.20;99.90
7648;DHT22;3866;48.020;11.720;2022-07-29T06:35:51;20.30;99.90
7648;DHT22;3866;48.020;11.720;2022-07-29T06:38:18;20.20;99.90
7648;DHT22;3866;48.020;11.720;2022-07-29T06:40:46;20.30;99.90
7648;DHT22;3866;48.020;11.720;2022-07-29T06:43:34;20.00;99.90
7648;DHT22;3866;48.020;11.720;2022-07-29T06:46:05;20.30;99.90
7648;DHT22;3866;48.020;11.720;2022-07-29T06:48:33;20.40;99.90
7648;DHT22;3866;48.020;11.720;2022-07-29T06:51:02;20.80;99.90
7648;DHT22;3866;48.020;11.720;2022-07-29T06:53:29;20.90;99.90
7648;DHT22;3866;48.020;11.720;2022-07-29T06:55:57;21.20;99.90
7648;DHT22;3866;48.020;11.720;2022-07-29T06:58:24;21.30;99.90
7648;DHT22;3866;48.020;11.720;2022-07-29T07:00:51;21.40;99.90
7648;DHT22;3866;48.020;11.720;2022-07-29T07:03:19;21.40;99.90
7648;DHT22;3866;48.020;11.720;2022-07-29T07:05:47;21.60;99.90
7648;DHT22;3866;48.020;11.720;2022-07-29T07:08:14;22.10;99.90
7648;DHT22;3866;48.020;11.720;2022-07-29T07:10:43;22.20;99.90
7648;DHT22;3866;48.020;11.720;2022-07-29T07:13:10;22.50;99.90
7648;DHT22;3866;48.020;11.720;2022-07-29T07:15:37;22.70;99.90
7648;DHT22;3866;48.020;11.720;2022-07-29T07:18:04;23.00;99.90
7648;DHT22;3866;48.020;11.720;2022-07-29T07:20:32;23.50;99.90
7648;DHT22;3866;48.020;11.720;2022-07-29T07:23:00;23.40;99.90
7648;DHT22;3866;48.020;11.720;2022-07-29T07:25:27;23.40;99.90
7648;DHT22;3866;48.020;11.720;2022-07-29T07:27:54;24.20;99.90
7648;DHT22;3866;48.020;11.720;2022-07-29T07:30:21;23.80;99.90
7648;DHT22;3866;48.020;11.720;2022-07-29T07:32:48;23.80;99.90
7648;DHT22;3866;48.020;11.720;2022-07-29T07:35:15;23.60;99.90
7648;DHT22;3866;48.020;11.720;2022-07-29T07:37:42;25.10;99.90
7648;DHT22;3866;48.020;11.720;2022-07-29T07:40:11;25.80;99.90
7648;DHT22;3866;48.020;11.720;2022-07-29T07:42:39;25.70;99.90
7648;DHT22;3866;48.020;11.720;2022-07-29T07:45:07;25.90;99.90
7648;DHT22;3866;48.020;11.720;2022-07-29T07:47:35;26.40;99.90
7648;DHT22;3866;48.020;11.720;2022-07-29T07:50:03;26.10;99.90
7648;DHT22;3866;48.020;11.720;2022-07-29T07:52:30;25.50;99.90
7648;DHT22;3866;48.020;11.720;2022-07-29T07:54:57;25.30;99.90
7648;DHT22;3866;48.020;11.720;2022-07-29T07:57:25;25.10;99.90
7648;DHT22;3866;48.020;11.720;2022-07-29T07:59:52;25.40;99.90
7648;DHT22;3866;48.020;11.720;2022-07-29T08:02:19;25.50;99.90
7648;DHT22;3866;48.020;11.720;2022-07-29T08:04:46;25.90;99.90
7648;DHT22;3866;48.020;11.720;2022-07-29T08:07:13;26.90;99.90
7648;DHT22;3866;48.020;11.720;2022-07-29T08:09:40;27.60;99.90
7648;DHT22;3866;48.020;11.720;2022-07-29T08:12:07;27.90;99.90
7648;DHT22;3866;48.020;11.720;2022-07-29T08:14:36;28.20;99.90
7648;DHT22;3866;48.020;11.720;2022-07-29T08:17:03;28.60;99.90
7648;DHT22;3866;48.020;11.720;2022-07-29T08:19:30;28.80;99.90
7648;DHT22;3866;48.020;11.720;2022-07-29T08:21:57;28.30;99.90
7648;DHT22;3866;48.020;11.720;2022-07-29T08:24:23;28.50;99.90
7648;DHT22;3866;48.020;11.720;2022-07-29T08:27:08;27.60;99.90
7648;DHT22;3866;48.020;11.720;2022-07-29T08:29:37;28.30;99.90
7648;DHT22;3866;48.020;11.720;2022-07-29T08:32:05;28.80;99.90
7648;DHT22;3866;48.020;11.720;2022-07-29T08:34:32;28.50;99.90
7648;DHT22;3866;48.020;11.720;2022-07-29T08:36:59;28.30;99.90
7648;DHT22;3866;48.020;11.720;2022-07-29T08:39:26;27.60;99.90
7648;DHT22;3866;48.020;11.720;2022-07-29T08:41:53;27.40;99.90
7648;DHT22;3866;48.020;11.720;2022-07-29T08:44:21;28.20;99.90
7648;DHT22;3866;48.020;11.720;2022-07-29T08:46:49;28.40;99.90
7648;DHT22;3866;48.020;11.720;2022-07-29T08:49:17;28.10;99.90
7648;DHT22;3866;48.020;11.720;2022-07-29T08:51:44;29.10;99.90
7648;DHT22;3866;48.020;11.720;2022-07-29T08:54:11;28.90;99.90
7648;DHT22;3866;48.020;11.720;2022-07-29T08:56:43;28.20;99.90
7648;DHT22;3866;48.020;11.720;2022-07-29T08:59:10;28.20;99.90
7648;DHT22;3866;48.020;11.720;2022-07-29T09:01:38;28.10;99.90
7648;DHT22;3866;48.020;11.720;2022-07-29T09:04:12;26.90;99.90
7648;DHT22;3866;48.020;11.720;2022-07-29T09:06:44;26.30;99.90
7648;DHT22;3866;48.020;11.720;2022-07-29T09:09:11;26.70;99.90
7648;DHT22;3866;48.020;11.720;2022-07-29T09:11:39;26.50;99.90
7648;DHT22;3866;48.020;11.720;2022-07-29T09:14:06;26.30;99.90
7648;DHT22;3866;48.020;11.720;2022-07-29T09:16:47;25.70;99.90
7648;DHT22;3866;48.020;11.720;2022-07-29T09:19:26;25.40;99.90
7648;DHT22;3866;48.020;11.720;2022-07-29T09:21:55;26.70;99.90
7648;DHT22;3866;48.020;11.720;2022-07-29T09:24:25;26.80;99.90
7648;DHT22;3866;48.020;11.720;2022-07-29T09:26:52;26.20;99.90
7648;DHT22;3866;48.020;11.720;2022-07-29T09:29:20;26.10;99.90
7648;DHT22;3866;48.020;11.720;2022-07-29T09:31:49;26.60;99.90
7648;DHT22;3866;48.020;11.720;2022-07-29T09:34:20;26.60;99.90
7648;DHT22;3866;48.020;11.720;2022-07-29T09:36:50;27.10;99.90
7648;DHT22;3866;48.020;11.720;2022-07-29T09:39:28;26.70;99.90
7648;DHT22;3866;48.020;11.720;2022-07-29T09:41:57;26.50;99.90
7648;DHT22;3866;48.020;11.720;2022-07-29T09:44:24;26.40;99.90
7648;DHT22;3866;48.020;11.720;2022-07-29T09:46:56;26.60;99.90
7648;DHT22;3866;48.020;11.720;2022-07-29T09:49:23;26.50;99.90
7648;DHT22;3866;48.020;11.720;2022-07-29T09:52:04;26.30;99.90
7648;DHT22;3866;48.020;11.720;2022-07-29T09:54:32;26.00;99.90
7648;DHT22;3866;48.020;11.720;2022-07-29T09:57:03;25.60;99.90
7648;DHT22;3866;48.020;11.720;2022-07-29T09:59:30;25.60;99.90
7648;DHT22;3866;48.020;11.720;2022-07-29T10:01:58;25.40;99.90
7648;DHT22;3866;48.020;11.720;2022-07-29T10:04:37;25.70;99.90
7648;DHT22;3866;48.020;11.720;2022-07-29T10:07:06;25.60;99.90
7648;DHT22;3866;48.020;11.720;2022-07-29T10:09:33;25.70;99.90
7648;DHT22;3866;48.020;11.720;2022-07-29T10:12:06;25.50;99.90
7648;DHT22;3866;48.020;11.720;2022-07-29T10:14:33;25.50;99.90
7648;DHT22;3866;48.020;11.720;2022-07-29T10:17:01;25.70;99.90
7648;DHT22;3866;48.020;11.720;2022-07-29T10:19:29;25.60;99.90
7648;DHT22;3866;48.020;11.720;2022-07-29T10:21:57;25.50;99.90
7648;DHT22;3866;48.020;11.720;2022-07-29T10:24:27;25.40;99.90
7648;DHT22;3866;48.020;11.720;2022-07-29T10:26:55;25.20;99.90
7648;DHT22;3866;48.020;11.720;2022-07-29T10:29:22;25.30;99.90
7648;DHT22;3866;48.020;11.720;2022-07-29T10:31:57;25.40;99.90
7648;DHT22;3866;48.020;11.720;2022-07-29T10:34:36;25.50;99.90
7648;DHT22;3866;48.020;11.720;2022-07-29T10:37:19;25.60;99.90
7648;DHT22;3866;48.020;11.720;2022-07-29T10:39:55;25.40;99.90
7648;DHT22;3866;48.020;11.720;2022-07-29T10:42:28;25.40;99.90
7648;DHT22;3866;48.020;11.720;2022-07-29T10:44:56;25.40;99.90
7648;DHT22;3866;48.020;11.720;2022-07-29T10:47:25;25.10;99.90
7648;DHT22;3866;48.020;11.720;2022-07-29T10:49:58;25.20;99.90
7648;DHT22;3866;48.020;11.720;2022-07-29T10:52:52;25.00;99.90
7648;DHT22;3866;48.020;11.720;2022-07-29T10:55:41;24.90;99.90
7648;DHT22;3866;48.020;11.720;2022-07-29T10:58:15;24.60;99.90
7648;DHT22;3866;48.020;11.720;2022-07-29T11:00:42;24.40;99.90
7648;DHT22;3866;48.020;11.720;2022-07-29T11:03:42;24.30;99.90
7648;DHT22;3866;48.020;11.720;2022-07-29T11:06:09;24.30;99.90
7648;DHT22;3866;48.020;11.720;2022-07-29T11:08:36;24.30;99.90
7648;DHT22;3866;48.020;11.720;2022-07-29T11:11:37;24.40;99.90
7648;DHT22;3866;48.020;11.720;2022-07-29T11:14:06;24.20;99.90
7648;DHT22;3866;48.020;11.720;2022-07-29T11:16:58;24.30;99.90
7648;DHT22;3866;48.020;11.720;2022-07-29T11:19:27;24.20;99.90
7648;DHT22;3866;48.020;11.720;2022-07-29T11:21:54;24.20;99.90
7648;DHT22;3866;48.020;11.720;2022-07-29T11:24:23;24.50;99.90
7648;DHT22;3866;48.020;11.720;2022-07-29T11:27:11;25.00;99.90
7648;DHT22;3866;48.020;11.720;2022-07-29T11:29:40;25.50;99.90
7648;DHT22;3866;48.020;11.720;2022-07-29T11:32:15;25.80;99.90
7648;DHT22;3866;48.020;11.720;2022-07-29T11:34:44;25.70;99.90
7648;DHT22;3866;48.020;11.720;2022-07-29T11:37:22;25.80;99.90
7648;DHT22;3866;48.020;11.720;2022-07-29T11:40:08;25.50;99.90
7648;DHT22;3866;48.020;11.720;2022-07-29T11:42:46;25.70;99.90
7648;DHT22;3866;48.020;11.720;2022-07-29T11:45:25;26.10;99.90
7648;DHT22;3866;48.020;11.720;2022-07-29T11:47:58;26.40;99.90
7648;DHT22;3866;48.020;11.720;2022-07-29T11:50:34;26.40;99.90
7648;DHT22;3866;48.020;11.720;2022-07-29T11:53:05;26.70;99.90
7648;DHT22;3866;48.020;11.720;2022-07-29T11:55:37;26.60;99.90
7648;DHT22;3866;48.020;11.720;2022-07-29T11:58:06;27.10;99.90
7648;DHT22;3866;48.020;11.720;2022-07-29T12:00:35;27.20;99.90
7648;DHT22;3866;48.020;11.720;2022-07-29T12:03:05;27.00;99.90
7648;DHT22;3866;48.020;11.720;2022-07-29T12:05:39;27.30;99.90
7648;DHT22;3866;48.020;11.720;2022-07-29T12:08:14;27.70;99.90
7648;DHT22;3866;48.020;11.720;2022-07-29T12:10:44;28.40;99.90
7648;DHT22;3866;48.020;11.720;2022-07-29T12:13:14;27.70;99.90
7648;DHT22;3866;48.020;11.720;2022-07-29T12:15:42;27.90;99.90
7648;DHT22;3866;48.020;11.720;2022-07-29T12:18:11;27.60;99.90
7648;DHT22;3866;48.020;11.720;2022-07-29T12:20:39;27.00;99.90
7648;DHT22;3866;48.020;11.720;2022-07-29T12:23:07;26.70;99.90
7648;DHT22;3866;48.020;11.720;2022-07-29T12:25:35;26.90;99.90
7648;DHT22;3866;48.020;11.720;2022-07-29T12:28:04;27.10;99.90
7648;DHT22;3866;48.020;11.720;2022-07-29T12:30:43;27.50;99.90
7648;DHT22;3866;48.020;11.720;2022-07-29T12:33:18;27.80;99.90
7648;DHT22;3866;48.020;11.720;2022-07-29T12:35:48;27.80;99.90
7648;DHT22;3866;48.020;11.720;2022-07-29T12:38:16;27.00;99.90
7648;DHT22;3866;48.020;11.720;2022-07-29T12:40:44;27.00;99.90
7648;DHT22;3866;48.020;11.720;2022-07-29T12:43:13;27.30;99.90
7648;DHT22;3866;48.020;11.720;2022-07-29T12:45:45;27.00;99.90
7648;DHT22;3866;48.020;11.720;2022-07-29T12:48:12;27.30;99.90
7648;DHT22;3866;48.020;11.720;2022-07-29T12:50:53;27.80;99.90
7648;DHT22;3866;48.020;11.720;2022-07-29T12:53:20;28.50;99.90
7648;DHT22;3866;48.020;11.720;2022-07-29T12:55:48;29.50;99.90
7648;DHT22;3866;48.020;11.720;2022-07-29T12:58:27;29.30;99.90
7648;DHT22;3866;48.020;11.720;2022-07-29T13:01:17;29.60;99.90
7648;DHT22;3866;48.020;11.720;2022-07-29T13:03:50;29.40;99.90
7648;DHT22;3866;48.020;11.720;2022-07-29T13:06:36;29.20;99.90
7648;DHT22;3866;48.020;11.720;2022-07-29T13:09:05;29.90;99.90
7648;DHT22;3866;48.020;11.720;2022-07-29T13:11:34;29.00;99.90
7648;DHT22;3866;48.020;11.720;2022-07-29T13:14:01;28.50;99.90
7648;DHT22;3866;48.020;11.720;2022-07-29T13:16:30;27.80;99.90
7648;DHT22;3866;48.020;11.720;2022-07-29T13:19:04;27.50;99.90
7648;DHT22;3866;48.020;11.720;2022-07-29T13:21:31;27.30;99.90
7648;DHT22;3866;48.020;11.720;2022-07-29T13:23:58;27.30;99.90
7648;DHT22;3866;48.020;11.720;2022-07-29T13:26:25;27.20;99.90
7648;DHT22;3866;48.020;11.720;2022-07-29T13:28:53;27.00;99.90
7648;DHT22;3866;48.020;11.720;2022-07-29T13:31:20;26.90;99.90
7648;DHT22;3866;48.020;11.720;2022-07-29T13:33:49;26.60;99.90
7648;DHT22;3866;48.020;11.720;2022-07-29T13:36:15;26.40;99.90
7648;DHT22;3866;48.020;11.720;2022-07-29T13:38:43;26.40;99.90
7648;DHT22;3866;48.020;11.720;2022-07-29T13:41:10;26.10;99.90
7648;DHT22;3866;48.020;11.720;2022-07-29T13:43:37;26.10;99.90
7648;DHT22;3866;48.020;11.720;2022-07-29T13:46:03;26.10;99.90
7648;DHT22;3866;48.020;11.720;2022-07-29T13:48:30;26.10;99.90
7648;DHT22;3866;48.020;11.720;2022-07-29T13:50:59;26.10;99.90
7648;DHT22;3866;48.020;11.720;2022-07-29T13:53:26;26.10;99.90
7648;DHT22;3866;48.020;11.720;2022-07-29T13:55:53;26.20;99.90
7648;DHT22;3866;48.020;11.720;2022-07-29T13:58:20;26.20;99.90
7648;DHT22;3866;48.020;11.720;2022-07-29T14:00:47;26.00;99.90
7648;DHT22;3866;48.020;11.720;2022-07-29T14:03:14;25.80;99.90
7648;DHT22;3866;48.020;11.720;2022-07-29T14:05:41;25.90;99.90
7648;DHT22;3866;48.020;11.720;2022-07-29T14:08:09;25.90;99.90
7648;DHT22;3866;48.020;11.720;2022-07-29T14:10:36;25.80;99.90
7648;DHT22;3866;48.020;11.720;2022-07-29T14:13:03;25.90;99.90
7648;DHT22;3866;48.020;11.720;2022-07-29T14:15:30;25.80;99.90
7648;DHT22;3866;48.020;11.720;2022-07-29T14:17:57;26.00;99.90
7648;DHT22;3866;48.020;11.720;2022-07-29T14:20:24;25.90;99.90
7648;DHT22;3866;48.020;11.720;2022-07-29T14:22:51;25.70;99.90
7648;DHT22;3866;48.020;11.720;2022-07-29T14:25:19;25.60;99.90
7648;DHT22;3866;48.020;11.720;2022-07-29T14:27:46;25.70;99.90
7648;DHT22;3866;48.020;11.720;2022-07-29T14:30:13;26.10;99.90
7648;DHT22;3866;48.020;11.720;2022-07-29T14:32:40;26.40;99.90
7648;DHT22;3866;48.020;11.720;2022-07-29T14:35:07;26.70;99.90
7648;DHT22;3866;48.020;11.720;2022-07-29T14:37:34;26.70;99.90
7648;DHT22;3866;48.020;11.720;2022-07-29T14:40:03;26.60;99.90
7648;DHT22;3866;48.020;11.720;2022-07-29T14:42:31;26.20;99.90
7648;DHT22;3866;48.020;11.720;2022-07-29T14:44:58;26.30;99.90
7648;DHT22;3866;48.020;11.720;2022-07-29T14:47:25;26.10;99.90
7648;DHT22;3866;48.020;11.720;2022-07-29T14:49:52;26.10;99.90
7648;DHT22;3866;48.020;11.720;2022-07-29T14:52:19;26.40;99.90
7648;DHT22;3866;48.020;11.720;2022-07-29T14:54:46;26.60;99.90
7648;DHT22;3866;48.020;11.720;2022-07-29T14:57:13;26.70;99.90
7648;DHT22;3866;48.020;11.720;2022-07-29T14:59:41;26.20;99.90
7648;DHT22;3866;48.020;11.720;2022-07-29T15:02:08;25.90;99.90
7648;DHT22;3866;48.020;11.720;2022-07-29T15:04:35;25.80;99.90
7648;DHT22;3866;48.020;11.720;2022-07-29T15:07:02;25.70;99.90
7648;DHT22;3866;48.020;11.720;2022-07-29T15:09:29;25.80;99.90
7648;DHT22;3866;48.020;11.720;2022-07-29T15:11:56;25.70;99.90
7648;DHT22;3866;48.020;11.720;2022-07-29T15:14:23;25.90;99.90
7648;DHT22;3866;48.020;11.720;2022-07-29T15:16:51;26.00;99.90
7648;DHT22;3866;48.020;11.720;2022-07-29T15:19:18;26.00;99.90
7648;DHT22;3866;48.020;11.720;2022-07-29T15:21:46;26.00;99.90
7648;DHT22;3866;48.020;11.720;2022-07-29T15:24:13;25.70;99.90
7648;DHT22;3866;48.020;11.720;2022-07-29T15:26:40;25.40;99.90
7648;DHT22;3866;48.020;11.720;2022-07-29T15:29:07;25.40;99.90
7648;DHT22;3866;48.020;11.720;2022-07-29T15:31:34;25.20;99.90
7648;DHT22;3866;48.020;11.720;2022-07-29T15:34:02;25.10;99.90
7648;DHT22;3866;48.020;11.720;2022-07-29T15:36:29;25.00;99.90
7648;DHT22;3866;48.020;11.720;2022-07-29T15:38:56;25.00;99.90
7648;DHT22;3866;48.020;11.720;2022-07-29T15:41:23;25.00;99.90
7648;DHT22;3866;48.020;11.720;2022-07-29T15:43:50;24.90;99.90
7648;DHT22;3866;48.020;11.720;2022-07-29T15:46:18;24.80;99.90
7648;DHT22;3866;48.020;11.720;2022-07-29T15:49:05;24.70;99.90
7648;DHT22;3866;48.020;11.720;2022-07-29T15:51:33;24.70;99.90
7648;DHT22;3866;48.020;11.720;2022-07-29T15:54:00;24.50;99.90
7648;DHT22;3866;48.020;11.720;2022-07-29T15:56:28;24.50;99.90
7648;DHT22;3866;48.020;11.720;2022-07-29T15:58:55;24.30;99.90
7648;DHT22;3866;48.020;11.720;2022-07-29T16:01:23;24.20;99.90
7648;DHT22;3866;48.020;11.720;2022-07-29T16:03:50;24.20;99.90
7648;DHT22;3866;48.020;11.720;2022-07-29T16:06:18;24.10;99.90